Theodore Roosevelt National Park, ND

2:43 AM MDT on July 24, 2016 (GMT -0600)
Southview | | Change Station

Elev 2434 ft 46.86 °N, 102.78 °W | Updated 15 minutes ago

Clear
Clear
56.3 °F
Feels Like 56.3 °F
N
1.7
Wind Variable Wind from West

Today
High -- | Low -- °F
--% Chance of Precip.
Yesterday
High -- | Low -- °F
Precip. -- in
Pressure 29.98 in
Visibility 10.0 miles
Clouds Clear
Dew Point 49 °F
Humidity 76%
Rainfall 0.00 in
Snow Depth Not available.
5:21 AM 8:32 PM
Waning Gibbous, 78% visible
METAR KDIK 240756Z AUTO 30008KT 10SM CLR 13/10 A3001 RMK AO2 SLP151 T01280100
Pressure 29.98 in
Visibility 10.0 miles
Clouds Clear
Dew Point 49 °F
Humidity 76%
Rainfall 0.00 in
Snow Depth Not available.
5:21 AM 8:32 PM
Waning Gibbous, 78% visible
METAR KDIK 240756Z AUTO 30008KT 10SM CLR 13/10 A3001 RMK AO2 SLP151 T01280100

10-Day Weather Forecast

Almanac

Astronomy

Jul. 24, 2016 Rise Set
Actual Time
Civil Twilight
Nautical Twilight
Astronomical Twilight
Moon
Length of Visible Light
Length of Day
Tomorrow will be .
, % of the Moon is Illuminated

Today's Extremes

State Highs State Lows

Community

WunderPhotos

Upload Photos

1,927,041 photos uploaded!

WunderBlog® & News

Nearby

Air Quality

  Air Quality AQ Index Pollutant
Not available.

Snow Depth

Station Depth Elevation

Earthquake Activity

City Distance Mag. Time & Date
Minimum magnitude displayed is 2.5.

Coastal Water Temperatures

Place Temperature

Stations

Nearby Weather Stations

Station Location Temp. Windchill Dew Point Humidity Wind Precip. Elev Updated Type
                   

Watches & Warnings

There are currently no watches in effect.